sensor_id;sensor_type;location;lat;lon;timestamp;P1;durP1;ratioP1;P2;durP2;ratioP2
39654;SDS011;25336;59.944;11.010;2022-12-20T00:00:02;17.65;;;11.55;;
39654;SDS011;25336;59.944;11.010;2022-12-20T00:02:29;19.67;;;11.30;;
39654;SDS011;25336;59.944;11.010;2022-12-20T00:04:55;17.00;;;10.60;;
39654;SDS011;25336;59.944;11.010;2022-12-20T00:07:20;16.08;;;10.95;;
39654;SDS011;25336;59.944;11.010;2022-12-20T00:09:46;17.85;;;10.95;;
39654;SDS011;25336;59.944;11.010;2022-12-20T00:12:11;19.52;;;11.05;;
39654;SDS011;25336;59.944;11.010;2022-12-20T00:14:37;18.42;;;10.63;;
39654;SDS011;25336;59.944;11.010;2022-12-20T00:17:02;16.15;;;10.88;;
39654;SDS011;25336;59.944;11.010;2022-12-20T00:19:28;18.02;;;11.32;;
39654;SDS011;25336;59.944;11.010;2022-12-20T00:21:54;15.63;;;10.90;;
39654;SDS011;25336;59.944;11.010;2022-12-20T00:24:19;16.95;;;10.63;;
39654;SDS011;25336;59.944;11.010;2022-12-20T00:26:45;16.33;;;11.20;;
39654;SDS011;25336;59.944;11.010;2022-12-20T00:29:10;21.50;;;11.70;;
39654;SDS011;25336;59.944;11.010;2022-12-20T00:31:36;16.55;;;10.52;;
39654;SDS011;25336;59.944;11.010;2022-12-20T00:34:02;17.83;;;11.20;;
39654;SDS011;25336;59.944;11.010;2022-12-20T00:36:28;18.92;;;11.10;;
39654;SDS011;25336;59.944;11.010;2022-12-20T00:38:55;18.52;;;11.85;;
39654;SDS011;25336;59.944;11.010;2022-12-20T00:41:22;19.27;;;12.43;;
39654;SDS011;25336;59.944;11.010;2022-12-20T00:43:50;18.63;;;11.13;;
39654;SDS011;25336;59.944;11.010;2022-12-20T00:46:16;16.20;;;10.05;;
39654;SDS011;25336;59.944;11.010;2022-12-20T00:48:43;15.43;;;10.55;;
39654;SDS011;25336;59.944;11.010;2022-12-20T00:51:12;17.33;;;11.75;;
39654;SDS011;25336;59.944;11.010;2022-12-20T00:53:39;15.75;;;10.60;;
39654;SDS011;25336;59.944;11.010;2022-12-20T00:56:05;15.32;;;10.77;;
39654;SDS011;25336;59.944;11.010;2022-12-20T00:58:32;17.95;;;11.50;;
39654;SDS011;25336;59.944;11.010;2022-12-20T01:01:00;18.23;;;11.05;;
39654;SDS011;25336;59.944;11.010;2022-12-20T01:03:25;18.80;;;10.98;;
39654;SDS011;25336;59.944;11.010;2022-12-20T01:05:56;13.93;;;9.43;;
39654;SDS011;25336;59.944;11.010;2022-12-20T01:08:24;15.32;;;10.23;;
39654;SDS011;25336;59.944;11.010;2022-12-20T01:10:58;19.17;;;10.20;;
39654;SDS011;25336;59.944;11.010;2022-12-20T01:13:31;13.20;;;9.85;;
39654;SDS011;25336;59.944;11.010;2022-12-20T01:16:02;12.52;;;9.57;;
39654;SDS011;25336;59.944;11.010;2022-12-20T01:18:29;13.32;;;9.35;;
39654;SDS011;25336;59.944;11.010;2022-12-20T01:21:02;13.00;;;8.80;;
39654;SDS011;25336;59.944;11.010;2022-12-20T01:23:29;12.60;;;9.57;;
39654;SDS011;25336;59.944;11.010;2022-12-20T01:25:56;15.75;;;9.13;;
39654;SDS011;25336;59.944;11.010;2022-12-20T01:28:23;12.73;;;9.13;;
39654;SDS011;25336;59.944;11.010;2022-12-20T01:30:49;13.07;;;8.38;;
39654;SDS011;25336;59.944;11.010;2022-12-20T01:33:14;16.17;;;10.27;;
39654;SDS011;25336;59.944;11.010;2022-12-20T01:35:40;14.38;;;8.80;;
39654;SDS011;25336;59.944;11.010;2022-12-20T01:38:06;13.93;;;9.43;;
39654;SDS011;25336;59.944;11.010;2022-12-20T01:40:31;16.05;;;10.50;;
39654;SDS011;25336;59.944;11.010;2022-12-20T01:42:57;14.57;;;9.55;;
39654;SDS011;25336;59.944;11.010;2022-12-20T01:45:27;14.75;;;10.02;;
39654;SDS011;25336;59.944;11.010;2022-12-20T01:50:21;13.63;;;9.15;;
39654;SDS011;25336;59.944;11.010;2022-12-20T01:52:47;12.10;;;8.10;;
39654;SDS011;25336;59.944;11.010;2022-12-20T01:55:17;15.10;;;9.35;;
39654;SDS011;25336;59.944;11.010;2022-12-20T01:57:47;14.05;;;8.95;;
39654;SDS011;25336;59.944;11.010;2022-12-20T02:00:15;12.50;;;8.90;;
39654;SDS011;25336;59.944;11.010;2022-12-20T02:02:42;13.60;;;9.25;;
39654;SDS011;25336;59.944;11.010;2022-12-20T02:05:11;14.05;;;9.50;;
39654;SDS011;25336;59.944;11.010;2022-12-20T02:07:38;15.38;;;9.18;;
39654;SDS011;25336;59.944;11.010;2022-12-20T02:10:06;14.75;;;9.32;;
39654;SDS011;25336;59.944;11.010;2022-12-20T02:12:45;12.70;;;8.77;;
39654;SDS011;25336;59.944;11.010;2022-12-20T02:18:00;14.00;;;9.02;;
39654;SDS011;25336;59.944;11.010;2022-12-20T02:20:41;18.13;;;10.07;;
39654;SDS011;25336;59.944;11.010;2022-12-20T02:29:24;12.20;;;8.18;;
39654;SDS011;25336;59.944;11.010;2022-12-20T02:32:19;11.38;;;7.32;;
39654;SDS011;25336;59.944;11.010;2022-12-20T02:34:52;11.95;;;8.15;;
39654;SDS011;25336;59.944;11.010;2022-12-20T02:37:19;10.77;;;8.55;;
39654;SDS011;25336;59.944;11.010;2022-12-20T02:39:45;14.95;;;8.70;;
39654;SDS011;25336;59.944;11.010;2022-12-20T02:42:12;10.82;;;7.95;;
39654;SDS011;25336;59.944;11.010;2022-12-20T02:44:42;11.32;;;7.10;;
39654;SDS011;25336;59.944;11.010;2022-12-20T02:47:32;11.52;;;8.27;;
39654;SDS011;25336;59.944;11.010;2022-12-20T02:50:02;11.98;;;7.82;;
39654;SDS011;25336;59.944;11.010;2022-12-20T02:52:29;10.85;;;7.25;;
39654;SDS011;25336;59.944;11.010;2022-12-20T02:54:57;12.43;;;8.48;;
39654;SDS011;25336;59.944;11.010;2022-12-20T02:57:26;11.48;;;8.63;;
39654;SDS011;25336;59.944;11.010;2022-12-20T03:00:03;12.63;;;8.77;;
39654;SDS011;25336;59.944;11.010;2022-12-20T03:02:30;13.95;;;8.77;;
39654;SDS011;25336;59.944;11.010;2022-12-20T03:05:16;12.00;;;8.05;;
39654;SDS011;25336;59.944;11.010;2022-12-20T03:07:44;11.68;;;8.18;;
39654;SDS011;25336;59.944;11.010;2022-12-20T03:10:09;10.90;;;8.10;;
39654;SDS011;25336;59.944;11.010;2022-12-20T03:12:35;11.27;;;8.15;;
39654;SDS011;25336;59.944;11.010;2022-12-20T03:15:01;13.38;;;9.25;;
39654;SDS011;25336;59.944;11.010;2022-12-20T03:17:26;11.13;;;8.48;;
39654;SDS011;25336;59.944;11.010;2022-12-20T03:19:52;11.30;;;8.40;;
39654;SDS011;25336;59.944;11.010;2022-12-20T03:22:18;13.38;;;8.48;;
39654;SDS011;25336;59.944;11.010;2022-12-20T03:24:43;13.40;;;9.40;;
39654;SDS011;25336;59.944;11.010;2022-12-20T03:27:09;13.68;;;8.77;;
39654;SDS011;25336;59.944;11.010;2022-12-20T03:29:35;9.82;;;8.07;;
39654;SDS011;25336;59.944;11.010;2022-12-20T03:32:00;15.52;;;8.00;;
39654;SDS011;25336;59.944;11.010;2022-12-20T03:34:26;10.48;;;7.32;;
39654;SDS011;25336;59.944;11.010;2022-12-20T03:36:52;10.68;;;7.03;;
39654;SDS011;25336;59.944;11.010;2022-12-20T03:39:18;10.27;;;6.95;;
39654;SDS011;25336;59.944;11.010;2022-12-20T03:41:43;11.38;;;7.68;;
39654;SDS011;25336;59.944;11.010;2022-12-20T03:44:09;8.90;;;6.85;;
39654;SDS011;25336;59.944;11.010;2022-12-20T03:46:34;9.75;;;6.22;;
39654;SDS011;25336;59.944;11.010;2022-12-20T03:49:00;11.18;;;7.00;;
39654;SDS011;25336;59.944;11.010;2022-12-20T03:51:25;11.07;;;8.18;;
39654;SDS011;25336;59.944;11.010;2022-12-20T03:53:51;10.35;;;6.90;;
39654;SDS011;25336;59.944;11.010;2022-12-20T03:56:17;11.30;;;7.22;;
39654;SDS011;25336;59.944;11.010;2022-12-20T03:58:43;10.60;;;7.53;;
39654;SDS011;25336;59.944;11.010;2022-12-20T04:01:19;12.40;;;6.90;;
39654;SDS011;25336;59.944;11.010;2022-12-20T04:03:49;8.10;;;5.65;;
39654;SDS011;25336;59.944;11.010;2022-12-20T04:06:15;8.50;;;6.88;;
39654;SDS011;25336;59.944;11.010;2022-12-20T04:08:42;8.32;;;6.55;;
39654;SDS011;25336;59.944;11.010;2022-12-20T04:11:07;8.43;;;6.88;;
39654;SDS011;25336;59.944;11.010;2022-12-20T04:16:09;8.77;;;5.47;;
39654;SDS011;25336;59.944;11.010;2022-12-20T04:18:35;6.20;;;5.10;;
39654;SDS011;25336;59.944;11.010;2022-12-20T04:21:01;9.20;;;6.55;;
39654;SDS011;25336;59.944;11.010;2022-12-20T04:23:27;6.63;;;5.40;;
39654;SDS011;25336;59.944;11.010;2022-12-20T04:25:53;9.43;;;5.90;;
39654;SDS011;25336;59.944;11.010;2022-12-20T04:28:19;6.30;;;5.47;;
39654;SDS011;25336;59.944;11.010;2022-12-20T04:30:44;7.10;;;5.68;;
39654;SDS011;25336;59.944;11.010;2022-12-20T04:33:10;8.63;;;5.68;;
39654;SDS011;25336;59.944;11.010;2022-12-20T04:35:36;6.90;;;5.63;;
39654;SDS011;25336;59.944;11.010;2022-12-20T04:38:02;6.90;;;5.85;;
39654;SDS011;25336;59.944;11.010;2022-12-20T04:40:28;5.35;;;4.82;;
39654;SDS011;25336;59.944;11.010;2022-12-20T04:42:53;6.43;;;5.00;;
39654;SDS011;25336;59.944;11.010;2022-12-20T04:45:19;6.18;;;4.68;;
39654;SDS011;25336;59.944;11.010;2022-12-20T04:47:45;6.53;;;5.03;;
39654;SDS011;25336;59.944;11.010;2022-12-20T04:50:10;6.90;;;5.18;;
39654;SDS011;25336;59.944;11.010;2022-12-20T04:52:36;6.88;;;5.78;;
39654;SDS011;25336;59.944;11.010;2022-12-20T04:55:20;9.35;;;5.93;;
39654;SDS011;25336;59.944;11.010;2022-12-20T04:57:46;6.63;;;5.32;;
39654;SDS011;25336;59.944;11.010;2022-12-20T05:00:12;6.65;;;5.20;;
39654;SDS011;25336;59.944;11.010;2022-12-20T05:02:39;6.82;;;5.30;;
39654;SDS011;25336;59.944;11.010;2022-12-20T05:05:05;7.82;;;5.72;;
39654;SDS011;25336;59.944;11.010;2022-12-20T05:07:31;8.57;;;5.78;;
39654;SDS011;25336;59.944;11.010;2022-12-20T05:09:57;7.45;;;5.75;;
39654;SDS011;25336;59.944;11.010;2022-12-20T05:12:22;7.57;;;5.50;;
39654;SDS011;25336;59.944;11.010;2022-12-20T05:14:48;8.68;;;6.38;;
39654;SDS011;25336;59.944;11.010;2022-12-20T05:17:14;9.38;;;6.63;;
39654;SDS011;25336;59.944;11.010;2022-12-20T05:19:39;9.18;;;5.50;;
39654;SDS011;25336;59.944;11.010;2022-12-20T05:22:05;7.40;;;5.72;;
39654;SDS011;25336;59.944;11.010;2022-12-20T05:24:49;8.00;;;6.20;;
39654;SDS011;25336;59.944;11.010;2022-12-20T05:27:34;9.13;;;6.45;;
39654;SDS011;25336;59.944;11.010;2022-12-20T05:29:59;11.68;;;8.50;;
39654;SDS011;25336;59.944;11.010;2022-12-20T05:32:25;12.02;;;7.35;;
39654;SDS011;25336;59.944;11.010;2022-12-20T05:34:50;10.70;;;7.45;;
39654;SDS011;25336;59.944;11.010;2022-12-20T05:37:16;9.13;;;7.40;;
39654;SDS011;25336;59.944;11.010;2022-12-20T05:39:41;7.75;;;5.78;;
39654;SDS011;25336;59.944;11.010;2022-12-20T05:42:07;7.90;;;5.72;;
39654;SDS011;25336;59.944;11.010;2022-12-20T05:44:33;7.30;;;6.20;;
39654;SDS011;25336;59.944;11.010;2022-12-20T05:46:58;8.00;;;6.50;;
39654;SDS011;25336;59.944;11.010;2022-12-20T05:49:24;8.05;;;5.28;;
39654;SDS011;25336;59.944;11.010;2022-12-20T05:51:50;12.18;;;6.07;;
39654;SDS011;25336;59.944;11.010;2022-12-20T05:54:15;7.57;;;5.60;;
39654;SDS011;25336;59.944;11.010;2022-12-20T05:56:41;6.00;;;4.88;;
39654;SDS011;25336;59.944;11.010;2022-12-20T05:59:06;9.90;;;7.32;;
39654;SDS011;25336;59.944;11.010;2022-12-20T06:01:33;12.43;;;6.65;;
39654;SDS011;25336;59.944;11.010;2022-12-20T06:03:59;12.95;;;6.90;;
39654;SDS011;25336;59.944;11.010;2022-12-20T06:06:24;8.02;;;6.43;;
39654;SDS011;25336;59.944;11.010;2022-12-20T06:08:50;10.32;;;6.82;;
39654;SDS011;25336;59.944;11.010;2022-12-20T06:11:15;12.23;;;6.60;;
39654;SDS011;25336;59.944;11.010;2022-12-20T06:13:41;16.50;;;6.90;;
39654;SDS011;25336;59.944;11.010;2022-12-20T06:16:07;7.30;;;6.55;;
39654;SDS011;25336;59.944;11.010;2022-12-20T06:18:32;9.32;;;6.82;;
39654;SDS011;25336;59.944;11.010;2022-12-20T06:20:58;10.27;;;6.75;;
39654;SDS011;25336;59.944;11.010;2022-12-20T06:23:23;6.32;;;4.97;;
39654;SDS011;25336;59.944;11.010;2022-12-20T06:25:49;6.75;;;5.22;;
39654;SDS011;25336;59.944;11.010;2022-12-20T06:28:15;7.43;;;5.25;;
39654;SDS011;25336;59.944;11.010;2022-12-20T06:30:50;7.10;;;4.93;;
39654;SDS011;25336;59.944;11.010;2022-12-20T06:33:19;4.75;;;4.20;;
39654;SDS011;25336;59.944;11.010;2022-12-20T06:35:45;8.68;;;5.40;;
39654;SDS011;25336;59.944;11.010;2022-12-20T06:38:11;7.18;;;5.53;;
39654;SDS011;25336;59.944;11.010;2022-12-20T06:40:36;6.82;;;4.20;;
39654;SDS011;25336;59.944;11.010;2022-12-20T06:43:02;12.75;;;5.13;;
39654;SDS011;25336;59.944;11.010;2022-12-20T06:45:28;6.00;;;5.28;;
39654;SDS011;25336;59.944;11.010;2022-12-20T06:47:53;6.07;;;4.68;;
39654;SDS011;25336;59.944;11.010;2022-12-20T06:50:20;6.72;;;4.78;;
39654;SDS011;25336;59.944;11.010;2022-12-20T06:52:46;7.43;;;4.82;;
39654;SDS011;25336;59.944;11.010;2022-12-20T06:55:12;8.48;;;5.63;;
39654;SDS011;25336;59.944;11.010;2022-12-20T06:57:37;10.18;;;6.05;;
39654;SDS011;25336;59.944;11.010;2022-12-20T07:00:03;6.72;;;5.28;;
39654;SDS011;25336;59.944;11.010;2022-12-20T07:02:29;6.28;;;4.95;;
39654;SDS011;25336;59.944;11.010;2022-12-20T07:04:55;6.00;;;5.15;;
39654;SDS011;25336;59.944;11.010;2022-12-20T07:07:21;6.55;;;5.47;;
39654;SDS011;25336;59.944;11.010;2022-12-20T07:09:46;9.82;;;6.20;;
39654;SDS011;25336;59.944;11.010;2022-12-20T07:12:12;5.68;;;4.60;;
39654;SDS011;25336;59.944;11.010;2022-12-20T07:14:38;6.47;;;4.88;;
39654;SDS011;25336;59.944;11.010;2022-12-20T07:17:04;7.97;;;4.93;;
39654;SDS011;25336;59.944;11.010;2022-12-20T07:19:31;7.25;;;5.82;;
39654;SDS011;25336;59.944;11.010;2022-12-20T07:21:57;8.10;;;5.60;;
39654;SDS011;25336;59.944;11.010;2022-12-20T07:24:22;9.77;;;6.88;;
39654;SDS011;25336;59.944;11.010;2022-12-20T07:26:48;13.82;;;8.55;;
39654;SDS011;25336;59.944;11.010;2022-12-20T07:29:13;9.82;;;6.70;;
39654;SDS011;25336;59.944;11.010;2022-12-20T07:31:39;9.20;;;5.88;;
39654;SDS011;25336;59.944;11.010;2022-12-20T07:34:05;8.60;;;6.80;;
39654;SDS011;25336;59.944;11.010;2022-12-20T07:36:30;8.88;;;6.55;;
39654;SDS011;25336;59.944;11.010;2022-12-20T07:38:56;9.88;;;6.63;;
39654;SDS011;25336;59.944;11.010;2022-12-20T07:41:22;10.57;;;6.97;;
39654;SDS011;25336;59.944;11.010;2022-12-20T07:43:49;9.13;;;6.90;;
39654;SDS011;25336;59.944;11.010;2022-12-20T07:46:15;10.40;;;8.25;;
39654;SDS011;25336;59.944;11.010;2022-12-20T07:48:41;11.18;;;7.88;;
39654;SDS011;25336;59.944;11.010;2022-12-20T07:51:09;17.92;;;7.15;;
39654;SDS011;25336;59.944;11.010;2022-12-20T07:54:25;12.32;;;7.40;;
39654;SDS011;25336;59.944;11.010;2022-12-20T07:56:59;12.73;;;8.33;;
39654;SDS011;25336;59.944;11.010;2022-12-20T07:59:32;11.60;;;7.65;;
39654;SDS011;25336;59.944;11.010;2022-12-20T08:02:08;16.65;;;10.57;;
39654;SDS011;25336;59.944;11.010;2022-12-20T08:04:37;21.55;;;9.88;;
39654;SDS011;25336;59.944;11.010;2022-12-20T08:07:03;22.33;;;10.40;;
39654;SDS011;25336;59.944;11.010;2022-12-20T08:09:30;18.48;;;10.27;;
39654;SDS011;25336;59.944;11.010;2022-12-20T08:12:01;27.90;;;13.05;;
39654;SDS011;25336;59.944;11.010;2022-12-20T08:14:27;21.75;;;13.32;;
39654;SDS011;25336;59.944;11.010;2022-12-20T08:16:53;22.90;;;12.48;;
39654;SDS011;25336;59.944;11.010;2022-12-20T08:19:18;25.48;;;12.23;;
39654;SDS011;25336;59.944;11.010;2022-12-20T08:21:44;19.52;;;11.73;;
39654;SDS011;25336;59.944;11.010;2022-12-20T08:24:09;22.20;;;11.27;;
39654;SDS011;25336;59.944;11.010;2022-12-20T08:26:36;25.65;;;11.23;;
39654;SDS011;25336;59.944;11.010;2022-12-20T08:29:02;17.40;;;10.55;;
39654;SDS011;25336;59.944;11.010;2022-12-20T08:31:28;24.25;;;10.27;;
39654;SDS011;25336;59.944;11.010;2022-12-20T08:33:54;16.02;;;10.63;;
39654;SDS011;25336;59.944;11.010;2022-12-20T08:36:19;22.13;;;10.38;;
39654;SDS011;25336;59.944;11.010;2022-12-20T08:38:45;15.10;;;9.40;;
39654;SDS011;25336;59.944;11.010;2022-12-20T08:41:11;19.02;;;11.10;;
39654;SDS011;25336;59.944;11.010;2022-12-20T08:43:39;18.55;;;10.80;;
39654;SDS011;25336;59.944;11.010;2022-12-20T08:46:06;39.92;;;24.50;;
39654;SDS011;25336;59.944;11.010;2022-12-20T08:48:33;29.98;;;15.80;;
39654;SDS011;25336;59.944;11.010;2022-12-20T08:51:00;30.35;;;17.25;;
39654;SDS011;25336;59.944;11.010;2022-12-20T08:53:27;34.50;;;15.63;;
39654;SDS011;25336;59.944;11.010;2022-12-20T08:55:53;21.00;;;13.73;;
39654;SDS011;25336;59.944;11.010;2022-12-20T08:58:27;21.33;;;12.80;;
39654;SDS011;25336;59.944;11.010;2022-12-20T09:00:52;28.40;;;15.23;;
39654;SDS011;25336;59.944;11.010;2022-12-20T09:03:18;29.45;;;16.13;;
39654;SDS011;25336;59.944;11.010;2022-12-20T09:05:47;29.40;;;15.32;;
39654;SDS011;25336;59.944;11.010;2022-12-20T09:08:13;21.38;;;12.30;;
39654;SDS011;25336;59.944;11.010;2022-12-20T09:10:41;26.88;;;14.45;;
39654;SDS011;25336;59.944;11.010;2022-12-20T09:13:07;25.55;;;14.65;;
39654;SDS011;25336;59.944;11.010;2022-12-20T09:15:33;25.35;;;15.25;;
39654;SDS011;25336;59.944;11.010;2022-12-20T09:18:00;31.67;;;18.15;;
39654;SDS011;25336;59.944;11.010;2022-12-20T09:20:26;49.75;;;23.27;;
39654;SDS011;25336;59.944;11.010;2022-12-20T09:22:52;41.60;;;24.33;;
39654;SDS011;25336;59.944;11.010;2022-12-20T09:25:17;39.22;;;20.33;;
39654;SDS011;25336;59.944;11.010;2022-12-20T09:27:43;40.78;;;21.10;;
39654;SDS011;25336;59.944;11.010;2022-12-20T09:30:09;36.58;;;20.92;;
39654;SDS011;25336;59.944;11.010;2022-12-20T09:32:35;39.72;;;18.00;;
39654;SDS011;25336;59.944;11.010;2022-12-20T09:35:01;38.22;;;19.70;;
39654;SDS011;25336;59.944;11.010;2022-12-20T09:37:30;36.55;;;16.70;;
39654;SDS011;25336;59.944;11.010;2022-12-20T09:39:56;28.27;;;15.68;;
39654;SDS011;25336;59.944;11.010;2022-12-20T09:42:23;38.17;;;15.93;;
39654;SDS011;25336;59.944;11.010;2022-12-20T09:44:51;20.60;;;11.88;;
39654;SDS011;25336;59.944;11.010;2022-12-20T09:47:19;37.78;;;14.45;;
39654;SDS011;25336;59.944;11.010;2022-12-20T09:49:48;31.00;;;12.43;;
39654;SDS011;25336;59.944;11.010;2022-12-20T10:00:46;34.28;;;14.55;;
39654;SDS011;25336;59.944;11.010;2022-12-20T10:03:17;45.15;;;14.07;;
39654;SDS011;25336;59.944;11.010;2022-12-20T10:05:56;33.58;;;14.32;;
39654;SDS011;25336;59.944;11.010;2022-12-20T10:08:30;45.13;;;15.07;;
39654;SDS011;25336;59.944;11.010;2022-12-20T10:14:20;37.95;;;14.32;;
39654;SDS011;25336;59.944;11.010;2022-12-20T10:16:51;31.50;;;14.13;;
39654;SDS011;25336;59.944;11.010;2022-12-20T10:19:29;29.10;;;12.77;;
39654;SDS011;25336;59.944;11.010;2022-12-20T10:22:10;21.80;;;11.85;;
39654;SDS011;25336;59.944;11.010;2022-12-20T10:24:44;22.90;;;11.88;;
39654;SDS011;25336;59.944;11.010;2022-12-20T10:27:18;21.13;;;12.02;;
39654;SDS011;25336;59.944;11.010;2022-12-20T10:29:45;24.45;;;14.20;;
39654;SDS011;25336;59.944;11.010;2022-12-20T10:32:14;31.92;;;15.07;;
39654;SDS011;25336;59.944;11.010;2022-12-20T10:37:34;20.55;;;10.02;;
39654;SDS011;25336;59.944;11.010;2022-12-20T10:40:00;20.92;;;9.13;;
39654;SDS011;25336;59.944;11.010;2022-12-20T10:42:33;18.45;;;9.18;;
39654;SDS011;25336;59.944;11.010;2022-12-20T10:45:26;13.07;;;5.10;;
39654;SDS011;25336;59.944;11.010;2022-12-20T10:47:58;20.75;;;4.95;;
39654;SDS011;25336;59.944;11.010;2022-12-20T10:50:25;8.40;;;5.35;;
39654;SDS011;25336;59.944;11.010;2022-12-20T10:55:35;6.90;;;3.55;;
39654;SDS011;25336;59.944;11.010;2022-12-20T11:00:40;11.00;;;2.63;;
39654;SDS011;25336;59.944;11.010;2022-12-20T11:06:11;3.08;;;2.33;;
39654;SDS011;25336;59.944;11.010;2022-12-20T11:08:39;10.00;;;3.97;;
39654;SDS011;25336;59.944;11.010;2022-12-20T11:11:09;33.72;;;4.22;;
39654;SDS011;25336;59.944;11.010;2022-12-20T11:13:40;14.65;;;3.20;;
39654;SDS011;25336;59.944;11.010;2022-12-20T11:16:19;15.38;;;2.83;;
39654;SDS011;25336;59.944;11.010;2022-12-20T11:21:45;29.92;;;3.58;;
39654;SDS011;25336;59.944;11.010;2022-12-20T11:24:13;43.63;;;4.53;;
39654;SDS011;25336;59.944;11.010;2022-12-20T11:26:45;19.92;;;3.67;;
39654;SDS011;25336;59.944;11.010;2022-12-20T11:29:56;21.80;;;4.25;;
39654;SDS011;25336;59.944;11.010;2022-12-20T11:32:22;28.15;;;4.00;;
39654;SDS011;25336;59.944;11.010;2022-12-20T11:40:32;79.55;;;7.93;;
39654;SDS011;25336;59.944;11.010;2022-12-20T11:45:59;120.40;;;9.50;;
39654;SDS011;25336;59.944;11.010;2022-12-20T11:54:16;86.28;;;6.18;;
39654;SDS011;25336;59.944;11.010;2022-12-20T11:56:59;221.48;;;12.38;;
39654;SDS011;25336;59.944;11.010;2022-12-20T12:05:05;114.05;;;8.77;;
39654;SDS011;25336;59.944;11.010;2022-12-20T12:07:39;98.97;;;6.53;;
39654;SDS011;25336;59.944;11.010;2022-12-20T12:18:23;83.78;;;8.35;;
39654;SDS011;25336;59.944;11.010;2022-12-20T12:20:54;126.43;;;7.85;;
39654;SDS011;25336;59.944;11.010;2022-12-20T12:23:47;107.10;;;7.38;;
39654;SDS011;25336;59.944;11.010;2022-12-20T12:26:30;98.45;;;7.05;;
39654;SDS011;25336;59.944;11.010;2022-12-20T12:31:41;120.03;;;8.23;;
39654;SDS011;25336;59.944;11.010;2022-12-20T12:34:26;147.30;;;10.65;;
39654;SDS011;25336;59.944;11.010;2022-12-20T12:37:30;84.03;;;7.25;;
39654;SDS011;25336;59.944;11.010;2022-12-20T12:45:28;31.92;;;6.40;;
39654;SDS011;25336;59.944;11.010;2022-12-20T12:50:57;51.92;;;6.68;;
39654;SDS011;25336;59.944;11.010;2022-12-20T12:53:34;20.63;;;4.78;;
39654;SDS011;25336;59.944;11.010;2022-12-20T12:56:36;40.97;;;5.88;;
39654;SDS011;25336;59.944;11.010;2022-12-20T13:09:21;8.02;;;5.00;;
39654;SDS011;25336;59.944;11.010;2022-12-20T13:12:46;8.90;;;5.50;;
39654;SDS011;25336;59.944;11.010;2022-12-20T13:20:37;6.25;;;4.78;;
39654;SDS011;25336;59.944;11.010;2022-12-20T13:30:40;12.77;;;7.07;;
39654;SDS011;25336;59.944;11.010;2022-12-20T13:41:25;40.88;;;14.23;;
39654;SDS011;25336;59.944;11.010;2022-12-20T13:46:47;22.40;;;11.00;;
39654;SDS011;25336;59.944;11.010;2022-12-20T13:49:40;22.60;;;11.07;;
39654;SDS011;25336;59.944;11.010;2022-12-20T13:54:38;60.50;;;14.82;;
39654;SDS011;25336;59.944;11.010;2022-12-20T13:57:05;28.95;;;10.07;;
39654;SDS011;25336;59.944;11.010;2022-12-20T13:59:32;50.15;;;15.38;;
39654;SDS011;25336;59.944;11.010;2022-12-20T14:01:59;55.70;;;14.32;;
39654;SDS011;25336;59.944;11.010;2022-12-20T14:04:27;104.85;;;17.15;;
39654;SDS011;25336;59.944;11.010;2022-12-20T14:07:07;77.93;;;16.23;;
39654;SDS011;25336;59.944;11.010;2022-12-20T14:09:37;101.75;;;21.60;;
39654;SDS011;25336;59.944;11.010;2022-12-20T14:12:10;185.27;;;23.77;;
39654;SDS011;25336;59.944;11.010;2022-12-20T14:14:45;52.10;;;17.45;;
39654;SDS011;25336;59.944;11.010;2022-12-20T14:20:18;237.68;;;23.42;;
39654;SDS011;25336;59.944;11.010;2022-12-20T14:22:51;112.28;;;17.63;;
39654;SDS011;25336;59.944;11.010;2022-12-20T14:25:26;101.32;;;16.73;;
39654;SDS011;25336;59.944;11.010;2022-12-20T14:28:44;78.55;;;17.25;;
39654;SDS011;25336;59.944;11.010;2022-12-20T14:34:04;58.72;;;17.77;;
39654;SDS011;25336;59.944;11.010;2022-12-20T14:36:37;100.43;;;24.20;;
39654;SDS011;25336;59.944;11.010;2022-12-20T14:41:54;53.58;;;19.42;;
39654;SDS011;25336;59.944;11.010;2022-12-20T14:44:46;114.88;;;35.53;;
39654;SDS011;25336;59.944;11.010;2022-12-20T14:49:52;62.88;;;18.58;;
39654;SDS011;25336;59.944;11.010;2022-12-20T14:52:27;33.53;;;16.00;;
39654;SDS011;25336;59.944;11.010;2022-12-20T14:55:06;45.53;;;13.82;;
39654;SDS011;25336;59.944;11.010;2022-12-20T15:03:20;44.97;;;12.73;;
39654;SDS011;25336;59.944;11.010;2022-12-20T15:05:42;41.05;;;14.07;;
39654;SDS011;25336;59.944;11.010;2022-12-20T15:08:21;57.15;;;18.00;;
39654;SDS011;25336;59.944;11.010;2022-12-20T15:13:45;71.15;;;33.50;;
39654;SDS011;25336;59.944;11.010;2022-12-20T15:16:19;37.38;;;21.23;;
39654;SDS011;25336;59.944;11.010;2022-12-20T15:18:53;71.13;;;28.20;;
39654;SDS011;25336;59.944;11.010;2022-12-20T15:21:33;75.20;;;32.63;;
39654;SDS011;25336;59.944;11.010;2022-12-20T15:24:10;55.30;;;25.25;;
39654;SDS011;25336;59.944;11.010;2022-12-20T15:26:38;38.20;;;19.88;;
39654;SDS011;25336;59.944;11.010;2022-12-20T15:29:05;66.18;;;30.23;;
39654;SDS011;25336;59.944;11.010;2022-12-20T15:31:32;68.85;;;26.88;;
39654;SDS011;25336;59.944;11.010;2022-12-20T15:34:00;37.17;;;21.77;;
39654;SDS011;25336;59.944;11.010;2022-12-20T15:36:34;55.53;;;25.63;;
39654;SDS011;25336;59.944;11.010;2022-12-20T15:38:59;57.13;;;22.63;;
39654;SDS011;25336;59.944;11.010;2022-12-20T15:41:29;32.40;;;14.73;;
39654;SDS011;25336;59.944;11.010;2022-12-20T15:43:57;78.70;;;15.85;;
39654;SDS011;25336;59.944;11.010;2022-12-20T15:46:31;76.75;;;18.73;;
39654;SDS011;25336;59.944;11.010;2022-12-20T15:48:57;57.70;;;17.90;;
39654;SDS011;25336;59.944;11.010;2022-12-20T15:51:30;89.40;;;20.17;;
39654;SDS011;25336;59.944;11.010;2022-12-20T15:53:57;115.13;;;18.85;;
39654;SDS011;25336;59.944;11.010;2022-12-20T15:56:25;144.10;;;19.80;;
39654;SDS011;25336;59.944;11.010;2022-12-20T15:58:51;148.98;;;16.40;;
39654;SDS011;25336;59.944;11.010;2022-12-20T16:01:18;203.10;;;22.15;;
39654;SDS011;25336;59.944;11.010;2022-12-20T16:03:46;264.92;;;21.65;;
39654;SDS011;25336;59.944;11.010;2022-12-20T16:06:12;220.18;;;18.27;;
39654;SDS011;25336;59.944;11.010;2022-12-20T16:08:38;176.93;;;17.23;;
39654;SDS011;25336;59.944;11.010;2022-12-20T16:11:05;142.20;;;16.27;;
39654;SDS011;25336;59.944;11.010;2022-12-20T16:13:37;89.93;;;17.00;;
39654;SDS011;25336;59.944;11.010;2022-12-20T16:16:03;156.68;;;16.25;;
39654;SDS011;25336;59.944;11.010;2022-12-20T16:18:30;111.07;;;14.77;;
39654;SDS011;25336;59.944;11.010;2022-12-20T16:20:56;106.30;;;14.43;;
39654;SDS011;25336;59.944;11.010;2022-12-20T16:23:21;94.13;;;17.25;;
39654;SDS011;25336;59.944;11.010;2022-12-20T16:25:47;93.00;;;15.57;;
39654;SDS011;25336;59.944;11.010;2022-12-20T16:28:14;53.67;;;16.02;;
39654;SDS011;25336;59.944;11.010;2022-12-20T16:30:40;52.97;;;18.70;;
39654;SDS011;25336;59.944;11.010;2022-12-20T16:33:05;50.72;;;17.80;;
39654;SDS011;25336;59.944;11.010;2022-12-20T16:35:35;40.17;;;19.40;;
39654;SDS011;25336;59.944;11.010;2022-12-20T16:38:03;36.78;;;19.77;;
39654;SDS011;25336;59.944;11.010;2022-12-20T16:40:30;36.03;;;18.85;;
39654;SDS011;25336;59.944;11.010;2022-12-20T16:42:57;38.28;;;20.05;;
39654;SDS011;25336;59.944;11.010;2022-12-20T16:45:24;59.75;;;28.70;;